X  Chiuso Dati meteorologici dell'aviazione (METAR)     LIRA Ciampino–G. B. Pastine International Airport
Temperatura
29°C Temperatura
13°C Punto di rugiada
37% Umidità



Vento
3 KM/H
2 MPH
1 M/S
2 KTS



120°
ESE
Condizioni attuali

Chiaro Chiaro
Pressione 1016.93 (hPa) - 30.03 (inHg)
Visibilità 6 (miglio) - 9.7 (km)
Aeroporto
Aeroporto-code LIRA

Posizione: Ciampino–G. B. Pastine International Airport
Distanza: 6 (km)

Metar:
LIRA 202250Z 12002KT CAVOK 29/13 Q1017

Ore: 20-06-2024 22:50 CEST